Time;durP1;ratioP1;P1;durP2;ratioP2;P2;SDS_P1;SDS_P2;PMS_P1;PMS_P2;Temp;Humidity;BMP_temperature;BMP_pressure;BME280_temperature;BME280_humidity;BME280_pressure;Samples;Min_cycle;Max_cycle;Signal;HPM_P1;HPM_P2
2023/04/19 00:01:00;;;;;;;7.03;5.32;;;9.20;99.90;;;;;;4958011;29;20023;-69
2023/04/19 00:03:27;;;;;;;7.95;5.60;;;9.20;99.90;;;;;;4959546;28;20030;-69
2023/04/19 00:05:53;;;;;;;5.45;4.85;;;9.30;99.90;;;;;;4959139;29;20023;-69
2023/04/19 00:08:18;;;;;;;6.35;5.10;;;9.30;99.90;;;;;;4959736;28;20528;-68
2023/04/19 00:10:44;;;;;;;8.07;6.05;;;9.30;99.90;;;;;;4959073;29;20102;-69
2023/04/19 00:13:10;;;;;;;7.30;5.50;;;9.30;99.90;;;;;;4959223;29;20031;-69
2023/04/19 00:15:37;;;;;;;6.68;5.45;;;9.30;99.90;;;;;;4958936;28;20038;-69
2023/04/19 00:18:03;;;;;;;6.07;5.45;;;9.30;99.90;;;;;;4959171;29;20483;-69
2023/04/19 00:20:28;;;;;;;7.25;5.82;;;9.30;99.90;;;;;;4958845;28;20241;-69
2023/04/19 00:22:54;;;;;;;5.70;5.10;;;9.40;99.90;;;;;;4959242;29;20066;-69
2023/04/19 00:25:20;;;;;;;10.45;5.25;;;9.40;99.90;;;;;;4958993;28;20062;-69
2023/04/19 00:27:45;;;;;;;5.70;4.90;;;9.30;99.90;;;;;;4958878;28;20038;-69
2023/04/19 00:30:11;;;;;;;5.45;4.82;;;9.30;99.90;;;;;;4958935;28;20054;-69
2023/04/19 00:32:37;;;;;;;5.60;5.10;;;9.40;99.90;;;;;;4959289;29;20031;-69
2023/04/19 00:35:03;;;;;;;6.70;5.78;;;9.40;99.90;;;;;;4958796;29;20032;-69
2023/04/19 00:37:28;;;;;;;6.68;5.65;;;9.40;99.90;;;;;;4959103;29;20023;-69
2023/04/19 00:39:54;;;;;;;6.90;5.50;;;9.40;99.90;;;;;;4958827;29;20042;-69
2023/04/19 00:42:19;;;;;;;5.18;4.68;;;9.40;99.90;;;;;;4958784;29;20020;-69
2023/04/19 00:44:45;;;;;;;9.30;5.38;;;9.40;99.90;;;;;;4958716;29;20070;-69
2023/04/19 00:47:12;;;;;;;5.55;5.05;;;9.50;99.90;;;;;;4955966;29;20026;-69
2023/04/19 00:49:38;;;;;;;6.93;4.70;;;9.60;99.90;;;;;;4958598;28;20488;-69
2023/04/19 00:52:04;;;;;;;6.97;5.28;;;9.70;99.90;;;;;;4958890;28;20432;-69
2023/04/19 00:54:31;;;;;;;9.20;5.40;;;9.70;99.90;;;;;;4957490;28;20489;-69
2023/04/19 00:56:57;;;;;;;6.15;4.88;;;9.70;99.90;;;;;;4958661;29;20053;-69
2023/04/19 00:59:23;;;;;;;5.70;4.93;;;9.70;99.90;;;;;;4958635;28;20115;-69
2023/04/19 01:01:49;;;;;;;7.85;5.43;;;9.70;99.90;;;;;;4958852;29;20023;-69
2023/04/19 01:04:16;;;;;;;8.25;5.68;;;9.60;99.90;;;;;;4958455;28;20035;-69
2023/04/19 01:06:41;;;;;;;6.07;5.47;;;9.60;99.90;;;;;;4958956;29;20090;-69
2023/04/19 01:09:08;;;;;;;5.30;4.53;;;9.50;99.90;;;;;;4957297;28;20035;-69
2023/04/19 01:11:34;;;;;;;7.18;5.20;;;9.40;99.90;;;;;;4958720;28;20496;-69
2023/04/19 01:13:59;;;;;;;6.38;5.38;;;9.30;99.90;;;;;;4958417;28;20031;-69
2023/04/19 01:16:26;;;;;;;6.57;5.20;;;9.30;99.90;;;;;;4958909;29;20126;-69
2023/04/19 01:18:52;;;;;;;7.82;5.45;;;9.20;99.90;;;;;;4957358;28;20035;-69
2023/04/19 01:21:18;;;;;;;7.35;5.60;;;9.20;99.90;;;;;;4958523;28;20079;-69
2023/04/19 01:23:44;;;;;;;6.32;5.43;;;9.20;99.90;;;;;;4958444;28;20031;-69
2023/04/19 01:26:10;;;;;;;8.10;5.30;;;9.10;99.90;;;;;;4957287;28;20511;-69
2023/04/19 01:28:36;;;;;;;6.95;5.55;;;9.10;99.90;;;;;;4960135;28;20392;-69
2023/04/19 01:31:02;;;;;;;7.68;6.22;;;9.20;99.90;;;;;;4962033;29;20035;-69
2023/04/19 01:33:28;;;;;;;8.25;7.28;;;9.10;99.90;;;;;;4961822;28;20087;-69
2023/04/19 01:35:53;;;;;;;9.48;6.10;;;9.20;99.90;;;;;;4961915;29;20527;-69
2023/04/19 01:38:19;;;;;;;6.10;5.50;;;9.20;99.90;;;;;;4961922;28;20078;-69
2023/04/19 01:40:45;;;;;;;10.70;6.60;;;9.20;99.90;;;;;;4961844;28;20023;-69
2023/04/19 01:43:13;;;;;;;13.57;6.43;;;9.30;99.90;;;;;;4961783;28;20027;-69
2023/04/19 01:45:39;;;;;;;7.40;6.00;;;9.30;99.90;;;;;;4961553;29;20033;-69
2023/04/19 01:48:05;;;;;;;6.97;5.90;;;9.30;99.90;;;;;;4957733;29;20395;-69
2023/04/19 01:50:31;;;;;;;19.25;7.93;;;9.20;99.90;;;;;;4961642;29;20107;-69
2023/04/19 01:52:58;;;;;;;6.47;5.88;;;9.20;99.90;;;;;;4961600;29;20035;-69
2023/04/19 01:55:23;;;;;;;7.30;6.13;;;9.10;99.90;;;;;;4961563;29;20074;-69
2023/04/19 01:57:51;;;;;;;9.60;6.95;;;9.10;99.90;;;;;;4961090;29;20039;-69
2023/04/19 02:00:17;;;;;;;7.63;6.32;;;9.00;99.90;;;;;;4960225;29;20400;-69
2023/04/19 02:02:43;;;;;;;7.45;6.18;;;8.90;99.90;;;;;;4961336;29;20078;-69
2023/04/19 02:05:10;;;;;;;7.10;6.38;;;8.80;99.90;;;;;;4961303;29;20027;-69
2023/04/19 02:07:36;;;;;;;6.53;5.93;;;8.80;99.90;;;;;;4961354;28;20026;-69
2023/04/19 02:10:02;;;;;;;7.45;6.68;;;8.70;99.90;;;;;;4961359;28;20642;-69
2023/04/19 02:12:32;;;;;;;8.35;7.18;;;8.60;99.90;;;;;;4960967;29;20029;-69
2023/04/19 02:14:58;;;;;;;7.88;7.07;;;8.50;99.90;;;;;;4961212;28;20020;-69
2023/04/19 02:17:24;;;;;;;6.90;6.20;;;8.40;99.90;;;;;;4961021;28;20042;-69
2023/04/19 02:19:51;;;;;;;7.13;6.43;;;8.40;99.90;;;;;;4961097;28;20030;-69
2023/04/19 02:22:17;;;;;;;8.20;6.85;;;8.30;99.90;;;;;;4960796;28;20055;-69
2023/04/19 02:24:43;;;;;;;7.50;6.57;;;8.20;99.90;;;;;;4961199;28;20027;-69
2023/04/19 02:27:09;;;;;;;8.80;6.97;;;8.30;99.90;;;;;;4959266;28;20023;-69
2023/04/19 02:29:34;;;;;;;10.27;6.68;;;8.30;99.90;;;;;;4961082;28;20027;-69
2023/04/19 02:32:02;;;;;;;7.40;6.70;;;8.40;99.90;;;;;;4959482;29;20050;-69
2023/04/19 02:34:28;;;;;;;10.88;6.93;;;8.60;99.90;;;;;;4960937;29;20554;-69
2023/04/19 02:36:53;;;;;;;7.63;6.70;;;8.70;99.90;;;;;;4959436;28;20147;-69
2023/04/19 02:39:19;;;;;;;8.55;7.68;;;8.80;99.90;;;;;;4959740;28;20484;-68
2023/04/19 02:41:45;;;;;;;7.75;6.97;;;8.80;99.90;;;;;;4960360;29;20036;-69
2023/04/19 02:44:11;;;;;;;10.40;6.72;;;8.80;99.90;;;;;;4960650;28;20027;-69
2023/04/19 02:46:37;;;;;;;7.43;6.72;;;8.70;99.90;;;;;;4957417;29;20027;-69
2023/04/19 02:49:03;;;;;;;10.30;7.43;;;8.70;99.90;;;;;;4960551;29;20055;-69
2023/04/19 02:51:28;;;;;;;7.53;6.70;;;8.60;99.90;;;;;;4960378;28;20119;-69
2023/04/19 02:53:54;;;;;;;8.90;8.07;;;8.60;99.90;;;;;;4960590;28;20031;-69
2023/04/19 02:56:19;;;;;;;8.38;7.47;;;8.50;99.90;;;;;;4959994;28;20019;-69
2023/04/19 02:58:46;;;;;;;7.50;6.70;;;8.50;99.90;;;;;;4960352;29;20027;-69
2023/04/19 03:01:12;;;;;;;9.98;7.10;;;8.40;99.90;;;;;;4956844;28;20035;-69
2023/04/19 03:03:37;;;;;;;7.40;6.70;;;8.30;99.90;;;;;;4958847;28;20102;-69
2023/04/19 03:06:03;;;;;;;8.50;7.60;;;8.30;99.90;;;;;;4957504;29;20028;-69
2023/04/19 03:08:29;;;;;;;9.32;7.38;;;8.30;99.90;;;;;;4959905;28;20023;-69
2023/04/19 03:10:55;;;;;;;8.70;7.40;;;8.30;99.90;;;;;;4959496;28;20090;-69
2023/04/19 03:13:20;;;;;;;7.53;6.82;;;8.20;99.90;;;;;;4959953;28;20024;-69
2023/04/19 03:15:47;;;;;;;10.30;8.02;;;8.10;99.90;;;;;;4960018;28;20031;-69
2023/04/19 03:18:13;;;;;;;8.68;6.95;;;8.10;99.90;;;;;;4959900;29;20033;-69
2023/04/19 03:20:38;;;;;;;8.40;7.50;;;8.00;99.90;;;;;;4959682;28;20150;-69
2023/04/19 03:23:04;;;;;;;8.15;6.97;;;8.00;99.90;;;;;;4959952;28;20035;-69
2023/04/19 03:25:30;;;;;;;7.60;6.90;;;8.00;99.90;;;;;;4959845;28;20093;-69
2023/04/19 03:27:57;;;;;;;7.88;6.68;;;8.00;99.90;;;;;;4954867;28;20023;-69
2023/04/19 03:30:23;;;;;;;8.52;7.53;;;8.00;99.90;;;;;;4959751;29;20027;-69
2023/04/19 03:32:48;;;;;;;11.40;7.90;;;8.00;99.90;;;;;;4959798;29;20035;-69
2023/04/19 03:35:14;;;;;;;9.63;8.50;;;8.10;99.90;;;;;;4959529;28;20035;-69
2023/04/19 03:37:40;;;;;;;8.88;7.45;;;8.20;99.90;;;;;;4959812;29;20050;-69
2023/04/19 03:40:06;;;;;;;8.13;7.32;;;8.30;99.90;;;;;;4959589;29;20031;-69
2023/04/19 03:42:31;;;;;;;12.45;7.93;;;8.40;99.90;;;;;;4959428;29;20102;-69
2023/04/19 03:44:57;;;;;;;13.23;7.57;;;8.50;99.90;;;;;;4959471;29;20054;-69
2023/04/19 03:47:23;;;;;;;9.35;7.97;;;8.50;99.90;;;;;;4953677;29;20110;-69
2023/04/19 03:49:48;;;;;;;9.95;8.52;;;8.60;99.90;;;;;;4957976;29;20089;-69
2023/04/19 03:52:14;;;;;;;13.88;7.93;;;8.60;99.90;;;;;;4959239;28;20124;-69
2023/04/19 03:54:40;;;;;;;9.80;8.80;;;8.70;99.90;;;;;;4959272;29;20066;-69
2023/04/19 03:57:05;;;;;;;9.68;8.45;;;8.70;99.90;;;;;;4959236;29;20513;-69
2023/04/19 03:59:31;;;;;;;10.25;9.25;;;8.80;99.90;;;;;;4959200;29;20027;-69
2023/04/19 04:01:56;;;;;;;11.10;8.88;;;8.90;99.90;;;;;;4958128;28;20500;-68
2023/04/19 04:04:22;;;;;;;12.95;9.30;;;8.90;99.90;;;;;;4957792;28;20527;-69
2023/04/19 04:06:48;;;;;;;11.25;9.98;;;9.00;99.90;;;;;;4959615;28;20392;-69
2023/04/19 04:09:13;;;;;;;11.93;9.82;;;9.00;99.90;;;;;;4959176;28;20023;-69
2023/04/19 04:11:39;;;;;;;12.93;10.48;;;9.10;99.90;;;;;;4957703;28;20027;-69
2023/04/19 04:14:05;;;;;;;12.13;10.93;;;9.10;99.90;;;;;;4959144;29;20492;-69
2023/04/19 04:16:31;;;;;;;14.88;9.52;;;9.00;99.90;;;;;;4957900;28;20095;-69
2023/04/19 04:18:57;;;;;;;12.30;10.70;;;9.00;99.90;;;;;;4958931;28;20464;-69
2023/04/19 04:21:23;;;;;;;13.10;10.15;;;9.00;99.90;;;;;;4959027;29;20057;-69
2023/04/19 04:23:49;;;;;;;12.02;9.45;;;9.00;99.90;;;;;;4958989;28;20118;-69
2023/04/19 04:26:15;;;;;;;13.20;10.75;;;9.00;99.90;;;;;;4957965;28;20055;-69
2023/04/19 04:28:41;;;;;;;15.10;10.30;;;8.90;99.90;;;;;;4955285;29;20150;-69
2023/04/19 04:31:06;;;;;;;15.30;11.57;;;8.90;99.90;;;;;;4959281;28;20034;-69
2023/04/19 04:33:32;;;;;;;13.10;11.55;;;8.90;99.90;;;;;;4957574;28;20496;-69
2023/04/19 04:35:58;;;;;;;15.57;10.93;;;8.90;99.90;;;;;;4959089;29;20023;-69
2023/04/19 04:38:24;;;;;;;17.15;11.77;;;8.90;99.90;;;;;;4958860;29;20051;-69
2023/04/19 04:40:53;;;;;;;17.05;11.77;;;8.80;99.90;;;;;;4957701;28;20081;-69
2023/04/19 04:43:20;;;;;;;16.58;10.73;;;8.70;99.90;;;;;;4957357;29;20031;-69
2023/04/19 04:45:46;;;;;;;14.60;10.93;;;8.60;99.90;;;;;;4957471;29;20062;-69
2023/04/19 04:48:12;;;;;;;13.85;10.45;;;8.50;99.90;;;;;;4958701;29;20039;-69
2023/04/19 04:50:38;;;;;;;12.65;10.27;;;8.50;99.90;;;;;;4959113;29;20357;-69
2023/04/19 04:53:03;;;;;;;12.43;11.13;;;8.40;99.90;;;;;;4957552;28;20034;-69
2023/04/19 04:55:29;;;;;;;15.27;12.43;;;8.40;99.90;;;;;;4958981;29;20027;-69
2023/04/19 04:57:55;;;;;;;12.15;10.80;;;8.30;99.90;;;;;;4958496;28;20030;-69
2023/04/19 05:00:21;;;;;;;14.75;11.50;;;8.30;99.90;;;;;;4958927;28;20480;-69
2023/04/19 05:02:47;;;;;;;13.82;12.43;;;8.30;99.90;;;;;;4959590;28;20028;-69
2023/04/19 05:05:13;;;;;;;16.10;13.68;;;8.30;99.90;;;;;;4961075;28;20034;-69
2023/04/19 05:07:38;;;;;;;16.35;14.10;;;8.40;99.90;;;;;;4962431;28;20554;-69
2023/04/19 05:10:05;;;;;;;14.32;12.82;;;8.40;99.90;;;;;;4961018;29;20500;-69
2023/04/19 05:12:30;;;;;;;15.70;13.32;;;8.40;99.90;;;;;;4960696;28;20170;-69
2023/04/19 05:14:56;;;;;;;16.77;12.07;;;8.50;99.90;;;;;;4962276;29;20059;-69
2023/04/19 05:17:22;;;;;;;17.20;12.43;;;8.50;99.90;;;;;;4960879;29;20576;-69
2023/04/19 05:19:47;;;;;;;15.45;12.52;;;8.60;99.90;;;;;;4962299;29;20046;-69
2023/04/19 05:22:13;;;;;;;16.67;12.68;;;8.60;99.90;;;;;;4961903;29;20083;-69
2023/04/19 05:24:39;;;;;;;14.00;12.52;;;8.50;99.90;;;;;;4962086;29;20476;-69
2023/04/19 05:27:05;;;;;;;20.02;14.02;;;8.60;99.90;;;;;;4961711;28;20038;-69
2023/04/19 05:29:31;;;;;;;20.60;13.30;;;8.70;99.90;;;;;;4962128;28;20058;-69
2023/04/19 05:31:57;;;;;;;16.25;13.45;;;8.70;99.90;;;;;;4961783;29;20027;-69
2023/04/19 05:34:23;;;;;;;16.27;13.75;;;8.80;99.90;;;;;;4961829;29;20027;-69
2023/04/19 05:36:49;;;;;;;16.42;13.48;;;8.90;99.90;;;;;;4961768;29;20091;-69
2023/04/19 05:39:15;;;;;;;20.23;13.52;;;9.10;99.90;;;;;;4960587;28;20527;-69
2023/04/19 05:41:41;;;;;;;16.27;13.63;;;9.20;99.90;;;;;;4961540;28;20031;-69
2023/04/19 05:44:07;;;;;;;22.67;13.82;;;9.20;99.90;;;;;;4960377;28;20384;-69
2023/04/19 05:46:32;;;;;;;18.17;13.00;;;9.30;99.90;;;;;;4961726;29;20027;-69
2023/04/19 05:48:58;;;;;;;15.00;12.20;;;9.40;99.90;;;;;;4961699;28;20499;-69
2023/04/19 05:51:24;;;;;;;20.55;13.43;;;9.50;99.90;;;;;;4961549;28;20385;-69
2023/04/19 05:53:49;;;;;;;13.95;12.48;;;9.70;99.90;;;;;;4961696;29;20019;-69
2023/04/19 05:56:15;;;;;;;15.60;12.23;;;9.80;99.90;;;;;;4959905;29;20039;-69
2023/04/19 05:58:41;;;;;;;15.85;12.18;;;10.00;99.90;;;;;;4961616;29;20034;-70
2023/04/19 06:01:06;;;;;;;14.18;11.60;;;10.10;99.90;;;;;;4961391;28;20039;-69
2023/04/19 06:03:32;;;;;;;14.13;11.20;;;10.30;99.90;;;;;;4961500;29;20023;-69
2023/04/19 06:05:58;;;;;;;16.38;11.95;;;10.40;99.90;;;;;;4959883;28;20448;-69
2023/04/19 06:08:24;;;;;;;14.40;11.77;;;10.50;99.90;;;;;;4959936;28;20023;-69
2023/04/19 06:10:50;;;;;;;16.55;12.35;;;10.60;99.90;;;;;;4961132;28;20027;-69
2023/04/19 06:13:15;;;;;;;13.90;10.95;;;10.70;99.90;;;;;;4959349;28;20034;-69
2023/04/19 06:15:41;;;;;;;14.43;11.27;;;10.70;99.90;;;;;;4961199;29;20070;-69
2023/04/19 06:18:09;;;;;;;15.45;11.70;;;10.80;99.90;;;;;;4959692;28;20027;-69
2023/04/19 06:20:37;;;;;;;13.45;10.63;;;10.90;99.90;;;;;;4960779;28;20416;-69
2023/04/19 06:23:02;;;;;;;14.18;10.02;;;11.00;99.90;;;;;;4961119;29;20027;-69
2023/04/19 06:25:28;;;;;;;12.98;10.98;;;11.20;99.90;;;;;;4960841;28;20043;-69
2023/04/19 06:27:54;;;;;;;14.25;10.43;;;11.30;99.90;;;;;;4956457;29;20034;-69
2023/04/19 06:30:19;;;;;;;12.77;10.25;;;11.40;99.90;;;;;;4961036;29;20034;-69
2023/04/19 06:32:45;;;;;;;15.82;10.27;;;11.50;99.90;;;;;;4960848;29;20055;-69
2023/04/19 06:35:11;;;;;;;11.13;9.90;;;11.60;99.90;;;;;;4960679;28;20058;-69
2023/04/19 06:37:36;;;;;;;12.60;10.35;;;11.70;99.90;;;;;;4960813;29;20602;-69
2023/04/19 06:40:04;;;;;;;12.73;9.55;;;11.80;99.90;;;;;;4959429;29;20035;-69
2023/04/19 06:42:29;;;;;;;15.38;10.23;;;11.90;99.90;;;;;;4960542;28;20089;-69
2023/04/19 06:44:58;;;;;;;12.73;10.77;;;11.90;99.90;;;;;;4960461;28;20031;-69
2023/04/19 06:47:24;;;;;;;12.65;9.90;;;12.00;99.90;;;;;;4955624;28;20023;-69
2023/04/19 06:49:49;;;;;;;14.07;10.02;;;12.20;99.90;;;;;;4960395;28;20079;-69
2023/04/19 06:52:15;;;;;;;14.73;10.63;;;12.30;99.90;;;;;;4959283;29;20078;-69
2023/04/19 06:54:41;;;;;;;14.20;10.18;;;12.50;99.90;;;;;;4960416;29;20035;-69
2023/04/19 06:57:06;;;;;;;15.23;9.68;;;12.60;99.90;;;;;;4958907;28;20027;-69
2023/04/19 06:59:32;;;;;;;11.57;9.52;;;12.60;99.90;;;;;;4960282;28;20042;-69
2023/04/19 07:01:58;;;;;;;14.02;10.38;;;12.60;99.90;;;;;;4960418;28;20033;-69
2023/04/19 07:04:25;;;;;;;14.07;9.48;;;12.70;99.90;;;;;;4960158;29;20400;-69
2023/04/19 07:06:50;;;;;;;16.30;8.15;;;12.90;99.90;;;;;;4959010;29;20035;-69
2023/04/19 07:09:16;;;;;;;10.40;8.23;;;13.00;99.90;;;;;;4960150;28;20031;-69
2023/04/19 07:11:42;;;;;;;11.75;8.38;;;13.20;99.90;;;;;;4959932;29;20066;-69
2023/04/19 07:14:07;;;;;;;11.40;8.32;;;13.30;99.90;;;;;;4960050;28;20416;-69
2023/04/19 07:16:33;;;;;;;13.65;8.15;;;13.40;99.90;;;;;;4960226;28;20055;-69
2023/04/19 07:18:59;;;;;;;12.30;7.82;;;13.50;99.90;;;;;;4959976;29;20035;-69
2023/04/19 07:21:27;;;;;;;9.93;7.90;;;13.60;99.90;;;;;;4958639;28;20055;-69
2023/04/19 07:23:53;;;;;;;9.48;7.47;;;13.70;99.90;;;;;;4958545;28;20031;-69
2023/04/19 07:26:19;;;;;;;11.52;8.02;;;13.80;99.90;;;;;;4957636;28;20150;-69
2023/04/19 07:28:44;;;;;;;12.52;7.78;;;13.90;99.90;;;;;;4955267;29;20107;-69
2023/04/19 07:31:17;;;;;;;11.70;7.05;;;13.90;99.90;;;;;;4959985;28;20031;-69
2023/04/19 07:33:44;;;;;;;10.23;7.95;;;13.90;99.90;;;;;;4959575;28;20055;-69
2023/04/19 07:36:09;;;;;;;12.93;7.43;;;14.00;99.90;;;;;;4959804;28;20038;-69
2023/04/19 07:38:35;;;;;;;11.13;7.53;;;14.00;99.90;;;;;;4958332;28;20110;-69
2023/04/19 07:41:02;;;;;;;11.85;7.57;;;14.20;99.90;;;;;;4959606;28;20023;-69
2023/04/19 07:43:29;;;;;;;9.60;7.38;;;14.30;99.90;;;;;;4959591;28;20031;-69
2023/04/19 07:45:55;;;;;;;10.60;8.18;;;14.30;99.90;;;;;;4957541;29;20028;-69
2023/04/19 07:48:20;;;;;;;10.63;7.15;;;14.40;99.90;;;;;;4955780;29;20034;-69
2023/04/19 07:50:46;;;;;;;9.68;7.35;;;14.40;99.90;;;;;;4959563;28;20023;-69
2023/04/19 07:53:12;;;;;;;13.35;6.25;;;14.50;99.90;;;;;;4959506;29;20027;-70
2023/04/19 07:55:37;;;;;;;12.40;6.95;;;14.60;99.90;;;;;;4959513;28;20034;-70
2023/04/19 07:58:03;;;;;;;9.27;6.55;;;14.70;99.90;;;;;;4959073;29;20030;-70
2023/04/19 08:00:29;;;;;;;8.82;5.60;;;14.80;99.90;;;;;;4959460;28;20062;-70
2023/04/19 08:02:58;;;;;;;7.13;6.07;;;14.80;99.90;;;;;;4959339;28;20070;-69
2023/04/19 08:05:25;;;;;;;9.88;6.30;;;14.90;99.90;;;;;;4959275;29;20039;-69
2023/04/19 08:07:52;;;;;;;7.00;5.53;;;14.90;99.90;;;;;;4959041;28;20016;-69
2023/04/19 08:10:17;;;;;;;7.60;5.95;;;14.90;99.90;;;;;;4959170;28;20110;-69
2023/04/19 08:12:43;;;;;;;7.15;5.45;;;15.00;99.90;;;;;;4958876;28;20086;-70
2023/04/19 08:15:09;;;;;;;6.72;5.15;;;15.00;99.90;;;;;;4959201;28;20031;-69
2023/04/19 08:17:34;;;;;;;13.38;6.00;;;15.10;99.90;;;;;;4959075;29;20389;-69
2023/04/19 08:20:00;;;;;;;9.80;5.57;;;15.20;99.90;;;;;;4958953;28;20046;-70
2023/04/19 08:22:26;;;;;;;8.73;6.38;;;15.20;99.90;;;;;;4958825;28;20047;-69
2023/04/19 08:24:52;;;;;;;9.05;5.80;;;15.20;99.90;;;;;;4959072;29;20500;-69
2023/04/19 08:27:18;;;;;;;9.23;5.30;;;15.30;99.90;;;;;;4958700;28;20059;-69
2023/04/19 08:29:44;;;;;;;6.70;5.50;;;15.40;99.90;;;;;;4959187;29;20062;-69
2023/04/19 08:32:11;;;;;;;6.45;5.15;;;15.40;99.90;;;;;;4958917;28;20555;-69
2023/04/19 08:34:37;;;;;;;9.98;5.20;;;15.50;99.90;;;;;;4958941;28;20038;-69
2023/04/19 08:37:03;;;;;;;12.25;5.10;;;15.50;99.90;;;;;;4960212;28;20034;-69
2023/04/19 08:39:30;;;;;;;9.07;4.82;;;15.50;99.90;;;;;;4963130;28;20035;-69
2023/04/19 08:42:00;;;;;;;6.63;4.65;;;15.50;99.90;;;;;;4961288;28;20081;-69
2023/04/19 08:44:27;;;;;;;6.90;5.13;;;15.50;99.90;;;;;;4962854;28;21034;-69
2023/04/19 08:46:53;;;;;;;7.63;4.60;;;15.60;99.90;;;;;;4958030;28;20423;-69
2023/04/19 08:49:19;;;;;;;7.63;4.40;;;15.70;99.90;;;;;;4962709;29;20031;-70
2023/04/19 08:51:49;;;;;;;8.57;4.75;;;15.70;99.90;;;;;;4961346;28;20031;-69
2023/04/19 08:54:15;;;;;;;10.38;4.82;;;15.80;99.90;;;;;;4962708;29;20019;-69
2023/04/19 08:56:40;;;;;;;5.28;4.47;;;15.80;99.90;;;;;;4962322;28;20504;-69
2023/04/19 08:59:06;;;;;;;8.60;5.05;;;15.90;99.90;;;;;;4962616;29;20491;-69
2023/04/19 09:01:32;;;;;;;10.40;5.45;;;16.00;99.90;;;;;;4962771;29;20492;-70
2023/04/19 09:03:57;;;;;;;8.07;4.95;;;16.10;99.90;;;;;;4962271;29;20041;-70
2023/04/19 09:06:23;;;;;;;6.32;4.35;;;16.30;99.90;;;;;;4961177;28;20019;-69
2023/04/19 09:08:56;;;;;;;6.60;5.32;;;16.40;99.90;;;;;;4962378;29;20027;-69
2023/04/19 09:11:34;;;;;;;10.00;4.60;;;16.40;99.90;;;;;;4962280;28;20391;-69
2023/04/19 09:14:08;;;;;;;13.30;5.30;;;16.40;99.90;;;;;;4962227;28;20027;-69
2023/04/19 09:16:36;;;;;;;10.07;4.50;;;16.40;99.90;;;;;;4962533;28;20051;-69
2023/04/19 09:19:02;;;;;;;5.20;4.20;;;16.40;99.90;;;;;;4962016;28;20029;-69
2023/04/19 09:21:32;;;;;;;5.25;4.13;;;16.40;99.90;;;;;;4960815;28;20051;-70
2023/04/19 09:23:59;;;;;;;9.95;4.20;;;16.40;99.90;;;;;;4960733;29;20060;-69
2023/04/19 09:26:28;;;;;;;6.55;4.47;;;16.60;99.90;;;;;;4959574;28;20095;-70
2023/04/19 09:28:58;;;;;;;8.13;4.40;;;16.50;99.90;;;;;;4959236;29;20047;-70
2023/04/19 09:31:27;;;;;;;11.15;4.78;;;16.50;99.90;;;;;;4960850;28;20027;-69
2023/04/19 09:33:53;;;;;;;8.25;4.28;;;16.60;99.90;;;;;;4961757;28;20095;-69
2023/04/19 09:36:33;;;;;;;10.18;4.70;;;16.70;99.90;;;;;;4962027;28;20027;-69
2023/04/19 09:39:00;;;;;;;6.00;4.63;;;16.70;99.90;;;;;;4962122;28;20499;-70
2023/04/19 09:41:25;;;;;;;7.45;4.68;;;16.80;99.90;;;;;;4960253;28;20039;-69
2023/04/19 09:43:52;;;;;;;7.43;4.30;;;16.90;99.90;;;;;;4961785;29;20473;-69
2023/04/19 09:46:34;;;;;;;7.85;4.85;;;16.90;99.90;;;;;;4961541;28;20424;-70
2023/04/19 09:49:22;;;;;;;7.50;4.40;;;17.00;99.90;;;;;;4961058;28;20035;-69
2023/04/19 09:51:49;;;;;;;5.03;3.85;;;17.10;99.90;;;;;;4961836;29;20019;-70
2023/04/19 09:54:18;;;;;;;7.50;4.50;;;17.10;99.90;;;;;;4961579;28;20031;-69
2023/04/19 09:56:44;;;;;;;7.32;4.30;;;17.20;99.90;;;;;;4961413;29;20031;-69
2023/04/19 09:59:11;;;;;;;9.40;4.10;;;17.30;99.90;;;;;;4961492;29;20433;-70
2023/04/19 10:01:52;;;;;;;6.65;4.45;;;17.20;99.90;;;;;;4961628;28;20031;-69
2023/04/19 10:04:22;;;;;;;8.05;4.30;;;17.30;99.90;;;;;;4961086;29;20035;-69
2023/04/19 10:06:52;;;;;;;10.67;4.37;;;17.40;99.90;;;;;;4961458;28;20031;-70
2023/04/19 10:09:22;;;;;;;5.93;3.42;;;17.40;99.90;;;;;;4961653;28;20302;-69
2023/04/19 10:11:52;;;;;;;5.15;3.53;;;17.50;99.90;;;;;;4961205;29;20384;-69
2023/04/19 10:14:26;;;;;;;7.80;4.70;;;17.60;99.90;;;;;;4961138;29;20059;-70
2023/04/19 10:16:52;;;;;;;6.90;4.00;;;17.60;99.90;;;;;;4961306;28;20554;-69
2023/04/19 10:19:19;;;;;;;6.10;3.83;;;17.60;99.90;;;;;;4961012;28;20114;-69
2023/04/19 10:21:48;;;;;;;9.23;3.75;;;17.70;99.90;;;;;;4961126;28;20051;-69
2023/04/19 10:24:15;;;;;;;4.45;3.00;;;17.80;99.90;;;;;;4961101;28;20118;-70
2023/04/19 10:27:23;;;;;;;5.05;3.33;;;17.90;99.90;;;;;;4960731;28;20019;-70
2023/04/19 10:29:57;;;;;;;8.18;3.72;;;18.10;99.90;;;;;;4958892;29;20059;-69
2023/04/19 10:32:27;;;;;;;8.77;3.67;;;18.20;99.90;;;;;;4960737;29;20042;-69
2023/04/19 10:34:55;;;;;;;6.83;3.00;;;18.20;99.90;;;;;;4959443;28;20500;-71
2023/04/19 10:37:24;;;;;;;9.00;3.75;;;18.30;99.90;;;;;;4961074;28;20767;-70
2023/04/19 10:39:50;;;;;;;7.60;3.42;;;18.40;99.90;;;;;;4960765;28;20480;-70
2023/04/19 10:42:16;;;;;;;6.15;3.33;;;18.50;99.90;;;;;;4960662;28;20082;-69
2023/04/19 10:45:01;;;;;;;5.53;3.03;;;18.50;99.90;;;;;;4959210;28;20031;-69
2023/04/19 10:47:40;;;;;;;3.72;2.67;;;18.40;99.90;;;;;;4957434;29;20032;-70
2023/04/19 10:50:06;;;;;;;5.72;3.40;;;18.40;99.90;;;;;;4960654;28;20023;-69
2023/04/19 10:52:33;;;;;;;6.53;3.58;;;18.40;99.90;;;;;;4960449;29;20034;-69
2023/04/19 10:55:03;;;;;;;4.80;2.78;;;18.50;99.90;;;;;;4960441;29;20023;-69
2023/04/19 10:58:04;;;;;;;10.50;3.60;;;18.60;99.90;;;;;;4960335;28;20079;-69
2023/04/19 11:00:34;;;;;;;6.28;2.97;;;18.80;99.90;;;;;;4951249;28;20027;-69
2023/04/19 11:03:38;;;;;;;6.25;2.50;;;18.80;99.90;;;;;;4960242;28;20031;-68
2023/04/19 11:06:19;;;;;;;5.55;3.38;;;18.90;99.90;;;;;;4959918;28;20089;-70
2023/04/19 11:08:45;;;;;;;5.63;2.70;;;18.90;99.90;;;;;;4960404;28;20035;-69
2023/04/19 11:11:14;;;;;;;4.18;2.13;;;19.00;99.90;;;;;;4959875;28;20055;-69
2023/04/19 11:13:41;;;;;;;6.03;3.13;;;19.00;99.90;;;;;;4960192;28;20027;-69
2023/04/19 11:16:08;;;;;;;3.58;2.35;;;19.10;99.90;;;;;;4958688;28;20078;-70
2023/04/19 11:18:34;;;;;;;8.20;2.60;;;19.10;99.90;;;;;;4959883;28;20023;-70
2023/04/19 11:21:13;;;;;;;6.63;2.83;;;19.30;99.90;;;;;;5115686;27;20398;-70
2023/04/19 11:23:39;;;;;;;4.93;2.35;;;19.40;99.90;;;;;;5115323;28;20027;-69
2023/04/19 11:26:10;;;;;;;4.43;2.53;;;19.50;99.90;;;;;;5115007;28;20102;-69
2023/04/19 11:28:36;;;;;;;5.38;2.80;;;19.60;99.90;;;;;;5110760;28;20544;-69
2023/04/19 11:31:03;;;;;;;5.53;2.58;;;19.60;99.90;;;;;;5115181;28;20083;-70
2023/04/19 11:33:32;;;;;;;4.60;2.65;;;19.60;99.90;;;;;;5096448;28;20027;-70
2023/04/19 11:35:58;;;;;;;9.15;2.58;;;19.60;99.90;;;;;;5115069;28;20024;-69
2023/04/19 11:38:27;;;;;;;4.10;2.85;;;19.70;99.90;;;;;;5114980;28;20126;-70
2023/04/19 11:41:03;;;;;;;5.80;2.35;;;19.80;99.90;;;;;;5114707;28;20465;-70
2023/04/19 11:43:34;;;;;;;6.18;2.50;;;19.80;99.90;;;;;;5114769;28;20420;-70
2023/04/19 11:46:10;;;;;;;4.07;2.42;;;20.00;99.90;;;;;;5114875;28;20024;-70
2023/04/19 11:48:36;;;;;;;4.18;2.60;;;20.00;99.90;;;;;;5082790;28;20391;-70
2023/04/19 11:51:03;;;;;;;7.40;2.80;;;19.90;99.90;;;;;;5114779;28;20408;-70
2023/04/19 11:53:31;;;;;;;5.40;2.72;;;20.00;99.90;;;;;;5114992;28;20102;-69
2023/04/19 11:56:03;;;;;;;8.27;2.70;;;20.10;99.90;;;;;;5114301;28;20054;-70
2023/04/19 11:58:31;;;;;;;4.82;2.50;;;20.20;99.90;;;;;;5114720;28;20028;-70
2023/04/19 12:01:12;;;;;;;3.90;2.20;;;20.20;99.70;;;;;;5114400;28;20028;-69
2023/04/19 12:03:55;;;;;;;6.30;2.35;;;20.40;99.90;;;;;;5114457;28;20051;-70
2023/04/19 12:06:26;;;;;;;2.90;2.08;;;20.60;99.90;;;;;;5114577;28;20028;-69
2023/04/19 12:08:53;;;;;;;5.18;2.30;;;20.60;98.70;;;;;;5114248;28;20020;-70
2023/04/19 12:11:25;;;;;;;6.45;2.50;;;20.60;97.80;;;;;;5114384;28;20027;-69
2023/04/19 12:14:11;;;;;;;5.85;2.47;;;20.70;98.70;;;;;;5114179;28;20059;-70
2023/04/19 12:16:37;;;;;;;4.57;2.15;;;20.60;97.60;;;;;;5114267;28;20024;-71
2023/04/19 12:19:12;;;;;;;5.47;2.20;;;20.50;95.50;;;;;;5113909;28;20420;-70
2023/04/19 12:21:39;;;;;;;4.90;2.35;;;20.40;96.10;;;;;;5095875;28;20024;-70
2023/04/19 12:24:05;;;;;;;6.05;2.05;;;20.50;95.50;;;;;;5113949;28;20452;-71
2023/04/19 12:26:31;;;;;;;4.00;2.28;;;20.70;94.80;;;;;;5113895;28;20392;-70
2023/04/19 12:28:58;;;;;;;4.38;2.25;;;20.80;96.90;;;;;;5113927;28;20044;-70
2023/04/19 12:31:24;;;;;;;5.13;2.15;;;21.00;95.90;;;;;;5106564;28;20031;-70
2023/04/19 12:33:50;;;;;;;5.45;2.55;;;21.10;95.90;;;;;;5100059;28;20009;-70
2023/04/19 12:36:16;;;;;;;5.70;2.10;;;21.10;94.70;;;;;;5082048;28;20115;-70
2023/04/19 12:38:42;;;;;;;2.47;1.90;;;21.10;96.20;;;;;;5100123;28;20055;-70
2023/04/19 12:41:07;;;;;;;3.47;1.95;;;21.20;94.80;;;;;;5100016;28;20042;-70
2023/04/19 12:43:33;;;;;;;7.70;1.92;;;21.20;94.20;;;;;;5100233;28;20016;-70
2023/04/19 12:45:59;;;;;;;4.15;2.20;;;21.20;92.80;;;;;;5100045;28;20034;-70